Time;durP1;ratioP1;P1;durP2;ratioP2;P2;SDS_P1;SDS_P2;PMS_P1;PMS_P2;Temp;Humidity;BMP_temperature;BMP_pressure;BME280_temperature;BME280_humidity;BME280_pressure;Samples;Min_cycle;Max_cycle;Signal;HPM_P1;HPM_P2
2022/05/08 00:02:19;;;;;;;15.45;4.20;;;;;;;;;;5004491;28;20364;-66
2022/05/08 00:04:49;;;;;;;16.67;3.75;;;;;;;;;;5016880;28;20163;-66
2022/05/08 00:07:16;;;;;;;17.20;3.95;;;;;;;;;;5018618;28;20050;-66
2022/05/08 00:09:43;;;;;;;18.02;4.20;;;;;;;;;;5002117;28;20069;-66
2022/05/08 00:12:11;;;;;;;20.80;4.10;;;;;;;;;;5014194;28;20049;-66
2022/05/08 00:14:38;;;;;;;16.38;4.15;;;;;;;;;;4996597;28;20041;-66
2022/05/08 00:17:04;;;;;;;27.73;5.45;;;;;;;;;;5016139;28;20459;-66
2022/05/08 00:19:31;;;;;;;25.15;4.97;;;;;;;;;;5015323;28;20192;-66
2022/05/08 00:21:57;;;;;;;18.50;4.35;;;;;;;;;;5015799;28;20057;-66
2022/05/08 00:24:23;;;;;;;16.73;4.07;;;;;;;;;;5013050;28;20523;-66
2022/05/08 00:26:50;;;;;;;22.33;6.00;;;;;;;;;;5014481;28;20057;-66
2022/05/08 00:29:17;;;;;;;21.67;4.72;;;;;;;;;;5020391;28;20053;-66
2022/05/08 00:31:43;;;;;;;25.33;6.25;;;;;;;;;;5002585;28;20107;-66
2022/05/08 00:34:10;;;;;;;25.42;4.93;;;;;;;;;;5003063;28;20436;-66
2022/05/08 00:36:36;;;;;;;23.42;5.00;;;;;;;;;;5022450;28;20049;-66
2022/05/08 00:39:02;;;;;;;22.40;4.38;;;;;;;;;;5020297;28;20481;-66
2022/05/08 00:41:28;;;;;;;19.88;4.47;;;;;;;;;;5010391;28;20042;-65
2022/05/08 00:43:54;;;;;;;26.75;5.95;;;;;;;;;;5024122;28;20038;-65
2022/05/08 00:46:20;;;;;;;23.05;5.32;;;;;;;;;;5014697;28;20053;-66
2022/05/08 00:48:47;;;;;;;20.88;5.10;;;;;;;;;;5024975;28;20042;-66
2022/05/08 00:51:15;;;;;;;26.77;5.55;;;;;;;;;;5022344;28;20075;-66
2022/05/08 00:53:43;;;;;;;22.35;4.95;;;;;;;;;;5014358;28;21655;-66
2022/05/08 00:56:10;;;;;;;33.80;7.15;;;;;;;;;;5014951;28;20088;-66
2022/05/08 00:58:37;;;;;;;27.48;5.55;;;;;;;;;;5016716;28;20124;-66
2022/05/08 01:01:03;;;;;;;18.30;4.40;;;;;;;;;;5020034;28;20045;-66
2022/05/08 01:03:30;;;;;;;21.75;4.97;;;;;;;;;;5014130;28;20060;-66
2022/05/08 01:05:56;;;;;;;24.45;5.30;;;;;;;;;;5018695;28;20056;-66
2022/05/08 01:08:23;;;;;;;20.45;5.57;;;;;;;;;;5014754;28;20033;-66
2022/05/08 01:10:49;;;;;;;19.58;4.55;;;;;;;;;;5016574;28;20397;-67
2022/05/08 01:13:15;;;;;;;14.98;4.30;;;;;;;;;;5012725;28;20354;-66
2022/05/08 01:15:43;;;;;;;18.60;4.90;;;;;;;;;;5005895;28;20057;-66
2022/05/08 01:18:09;;;;;;;22.52;7.18;;;;;;;;;;5015101;28;20045;-66
2022/05/08 01:20:36;;;;;;;21.80;4.88;;;;;;;;;;5000499;28;20083;-66
2022/05/08 01:23:03;;;;;;;21.98;5.15;;;;;;;;;;5017000;28;20095;-66
2022/05/08 01:25:29;;;;;;;23.60;5.43;;;;;;;;;;5017211;28;20073;-66
2022/05/08 01:27:55;;;;;;;21.00;4.28;;;;;;;;;;5013508;28;20050;-66
2022/05/08 01:30:22;;;;;;;22.15;5.45;;;;;;;;;;5015997;28;20046;-66
2022/05/08 01:32:48;;;;;;;22.23;4.53;;;;;;;;;;5014811;28;20050;-66
2022/05/08 01:35:15;;;;;;;21.95;4.40;;;;;;;;;;4995515;28;20056;-66
2022/05/08 01:37:41;;;;;;;21.23;5.05;;;;;;;;;;5012620;28;20055;-66
2022/05/08 01:40:07;;;;;;;18.67;4.50;;;;;;;;;;5016082;28;20050;-66
2022/05/08 01:42:34;;;;;;;17.65;4.38;;;;;;;;;;5012751;28;20049;-66
2022/05/08 01:45:00;;;;;;;18.27;4.75;;;;;;;;;;4998641;28;20498;-66
2022/05/08 01:50:10;;;;;;;21.17;4.55;;;;;;;;;;5010787;28;20050;-66
2022/05/08 01:52:36;;;;;;;19.45;4.38;;;;;;;;;;5011185;28;20041;-66
2022/05/08 01:55:03;;;;;;;17.55;3.88;;;;;;;;;;4998729;28;20049;-66
2022/05/08 01:57:29;;;;;;;12.77;3.85;;;;;;;;;;5004776;28;20382;-66
2022/05/08 01:59:55;;;;;;;18.90;3.72;;;;;;;;;;5019585;28;20103;-66
2022/05/08 02:02:21;;;;;;;13.70;3.53;;;;;;;;;;5014610;28;20477;-66
2022/05/08 02:04:48;;;;;;;17.55;3.90;;;;;;;;;;5010998;28;20107;-66
2022/05/08 02:07:14;;;;;;;18.55;3.65;;;;;;;;;;5015986;28;20044;-66
2022/05/08 02:09:40;;;;;;;13.13;4.00;;;;;;;;;;5005115;28;20471;-66
2022/05/08 02:12:06;;;;;;;15.45;3.72;;;;;;;;;;4996863;28;20038;-66
2022/05/08 02:14:32;;;;;;;16.63;4.05;;;;;;;;;;5012564;28;20041;-66
2022/05/08 02:16:58;;;;;;;12.27;3.38;;;;;;;;;;5011464;28;20165;-66
2022/05/08 02:19:25;;;;;;;16.00;4.15;;;;;;;;;;5011300;28;20060;-66
2022/05/08 02:21:51;;;;;;;19.73;4.45;;;;;;;;;;5011381;28;20042;-66
2022/05/08 02:24:17;;;;;;;14.70;4.45;;;;;;;;;;5014233;28;20219;-66
2022/05/08 02:26:43;;;;;;;19.80;4.13;;;;;;;;;;5012650;28;20383;-66
2022/05/08 02:29:09;;;;;;;17.08;3.95;;;;;;;;;;5015953;28;20045;-66
2022/05/08 02:31:36;;;;;;;17.80;4.18;;;;;;;;;;5002163;28;20053;-66
2022/05/08 02:34:02;;;;;;;17.92;4.03;;;;;;;;;;5003009;28;20550;-66
2022/05/08 02:36:28;;;;;;;14.38;3.75;;;;;;;;;;5014734;28;20485;-66
2022/05/08 02:38:55;;;;;;;16.00;4.10;;;;;;;;;;5014508;28;20054;-66
2022/05/08 02:41:21;;;;;;;12.88;3.90;;;;;;;;;;5000255;28;20041;-66
2022/05/08 02:43:47;;;;;;;15.07;3.63;;;;;;;;;;5013957;28;20050;-66
2022/05/08 02:46:13;;;;;;;16.88;4.40;;;;;;;;;;5017138;28;20053;-66
2022/05/08 02:48:39;;;;;;;12.77;3.50;;;;;;;;;;5015779;28;20065;-66
2022/05/08 02:51:06;;;;;;;13.43;4.15;;;;;;;;;;5017824;28;20045;-66
2022/05/08 02:53:32;;;;;;;15.77;4.15;;;;;;;;;;5022253;28;20485;-66
2022/05/08 02:59:03;;;;;;;11.30;3.55;;;;;;;;;;5015707;28;20053;-66
2022/05/08 03:01:29;;;;;;;18.70;4.00;;;;;;;;;;5017407;28;20056;-66
2022/05/08 03:03:55;;;;;;;10.25;3.85;;;;;;;;;;5005536;28;20107;-66
2022/05/08 03:06:21;;;;;;;17.15;4.68;;;;;;;;;;5011662;28;20098;-66
2022/05/08 03:08:49;;;;;;;15.52;3.72;;;;;;;;;;5005122;28;20048;-66
2022/05/08 03:11:25;;;;;;;12.15;3.20;;;;;;;;;;5013634;28;20069;-66
2022/05/08 03:13:51;;;;;;;10.93;3.53;;;;;;;;;;5015324;28;20029;-66
2022/05/08 03:16:17;;;;;;;12.48;3.55;;;;;;;;;;5013665;28;20062;-66
2022/05/08 03:18:45;;;;;;;14.75;3.60;;;;;;;;;;5015874;28;20654;-66
2022/05/08 03:21:12;;;;;;;20.00;4.32;;;;;;;;;;5019291;28;20079;-66
2022/05/08 03:23:39;;;;;;;16.08;3.65;;;;;;;;;;5015971;28;20045;-66
2022/05/08 03:26:05;;;;;;;8.50;2.55;;;;;;;;;;5013859;28;20038;-66
2022/05/08 03:28:32;;;;;;;12.63;2.67;;;;;;;;;;5015958;28;20050;-66
2022/05/08 03:30:59;;;;;;;20.63;3.33;;;;;;;;;;5007244;28;20065;-67
2022/05/08 03:33:26;;;;;;;18.83;3.97;;;;;;;;;;5007507;28;20046;-66
2022/05/08 03:35:52;;;;;;;15.52;3.72;;;;;;;;;;5017044;28;20190;-66
2022/05/08 03:38:18;;;;;;;16.77;5.68;;;;;;;;;;5023350;28;20188;-66
2022/05/08 03:40:44;;;;;;;14.63;3.78;;;;;;;;;;5006425;28;20053;-66
2022/05/08 03:43:10;;;;;;;13.65;3.85;;;;;;;;;;5018504;28;20469;-66
2022/05/08 03:45:36;;;;;;;9.10;3.08;;;;;;;;;;5016424;28;20050;-66
2022/05/08 03:48:03;;;;;;;13.52;3.05;;;;;;;;;;5012530;28;20497;-66
2022/05/08 03:50:30;;;;;;;16.10;3.08;;;;;;;;;;5016493;28;20037;-66
2022/05/08 03:52:57;;;;;;;13.52;3.30;;;;;;;;;;4999603;28;20045;-66
2022/05/08 03:55:23;;;;;;;13.07;2.83;;;;;;;;;;4996169;28;20034;-66
2022/05/08 03:57:49;;;;;;;10.73;2.83;;;;;;;;;;4999552;28;20079;-66
2022/05/08 04:00:16;;;;;;;19.13;3.35;;;;;;;;;;5021001;28;20054;-66
2022/05/08 04:02:42;;;;;;;13.82;3.17;;;;;;;;;;5016332;28;20046;-66
2022/05/08 04:05:09;;;;;;;13.88;3.72;;;;;;;;;;5013770;28;20458;-66
2022/05/08 04:07:37;;;;;;;14.35;3.28;;;;;;;;;;5023990;28;20078;-65
2022/05/08 04:10:03;;;;;;;13.23;3.67;;;;;;;;;;5015439;28;20072;-66
2022/05/08 04:12:30;;;;;;;12.60;3.38;;;;;;;;;;5018782;28;20049;-66
2022/05/08 04:14:56;;;;;;;9.90;2.80;;;;;;;;;;5014918;28;20042;-66
2022/05/08 04:17:22;;;;;;;8.88;2.33;;;;;;;;;;5011490;28;20045;-66
2022/05/08 04:19:48;;;;;;;15.73;4.03;;;;;;;;;;5021591;28;20092;-66
2022/05/08 04:24:59;;;;;;;10.07;2.63;;;;;;;;;;5006072;28;22079;-66
2022/05/08 04:27:25;;;;;;;14.35;2.83;;;;;;;;;;5022702;28;20053;-66
2022/05/08 04:29:51;;;;;;;10.43;3.17;;;;;;;;;;5014408;28;20034;-66
2022/05/08 04:32:17;;;;;;;8.05;2.50;;;;;;;;;;5003390;28;20070;-66
2022/05/08 04:34:44;;;;;;;9.00;2.38;;;;;;;;;;5009843;28;20073;-66
2022/05/08 04:37:10;;;;;;;11.82;2.83;;;;;;;;;;5010806;28;20049;-66
2022/05/08 04:39:36;;;;;;;10.95;3.17;;;;;;;;;;5018287;28;20103;-66
2022/05/08 04:42:03;;;;;;;14.77;3.63;;;;;;;;;;5013961;28;20048;-66
2022/05/08 04:44:29;;;;;;;13.70;2.88;;;;;;;;;;5015387;28;20123;-66
2022/05/08 04:46:55;;;;;;;18.48;3.20;;;;;;;;;;5011415;28;20046;-66
2022/05/08 04:49:21;;;;;;;13.73;3.10;;;;;;;;;;5011562;28;20088;-66
2022/05/08 04:51:47;;;;;;;10.98;3.30;;;;;;;;;;5009655;28;20501;-66
2022/05/08 04:54:13;;;;;;;10.00;2.97;;;;;;;;;;5015851;28;20053;-66
2022/05/08 04:56:40;;;;;;;11.35;3.20;;;;;;;;;;4999637;28;20038;-66
2022/05/08 04:59:06;;;;;;;13.57;4.30;;;;;;;;;;5014538;28;20046;-66
2022/05/08 05:01:32;;;;;;;14.15;3.20;;;;;;;;;;5015765;28;20045;-66
2022/05/08 05:03:59;;;;;;;14.50;3.47;;;;;;;;;;5004886;28;20057;-66
2022/05/08 05:06:25;;;;;;;11.45;3.00;;;;;;;;;;5011722;28;20397;-66
2022/05/08 05:08:51;;;;;;;11.43;3.45;;;;;;;;;;5013367;28;20133;-66
2022/05/08 05:11:17;;;;;;;9.55;2.90;;;;;;;;;;5011489;28;20069;-66
2022/05/08 05:13:43;;;;;;;14.35;3.88;;;;;;;;;;5018172;28;20069;-66
2022/05/08 05:16:09;;;;;;;11.27;2.83;;;;;;;;;;5021457;28;20046;-66
2022/05/08 05:18:35;;;;;;;13.18;2.80;;;;;;;;;;5013199;28;20108;-66
2022/05/08 05:21:01;;;;;;;11.40;3.22;;;;;;;;;;5010351;28;20066;-66
2022/05/08 05:23:28;;;;;;;10.15;2.90;;;;;;;;;;5018949;28;20038;-66
2022/05/08 05:25:54;;;;;;;9.23;3.40;;;;;;;;;;5015016;28;20114;-66
2022/05/08 05:28:20;;;;;;;17.20;2.95;;;;;;;;;;5000761;28;20132;-64
2022/05/08 05:30:46;;;;;;;11.93;3.40;;;;;;;;;;5011468;28;20489;-66
2022/05/08 05:33:15;;;;;;;6.57;2.30;;;;;;;;;;5012420;28;20052;-66
2022/05/08 05:35:42;;;;;;;10.52;3.22;;;;;;;;;;4996886;28;20045;-66
2022/05/08 05:38:08;;;;;;;10.48;2.90;;;;;;;;;;4998012;28;20041;-66
2022/05/08 05:40:35;;;;;;;10.00;2.92;;;;;;;;;;5012007;28;20091;-66
2022/05/08 05:43:01;;;;;;;18.35;2.92;;;;;;;;;;4999360;28;20041;-66
2022/05/08 05:45:27;;;;;;;13.00;3.03;;;;;;;;;;5013433;28;20484;-65
2022/05/08 05:47:53;;;;;;;13.35;3.17;;;;;;;;;;5003119;28;20096;-65
2022/05/08 05:50:20;;;;;;;15.85;2.92;;;;;;;;;;5002013;28;20100;-66
2022/05/08 05:52:47;;;;;;;15.30;2.58;;;;;;;;;;5001924;28;20033;-66
2022/05/08 05:55:13;;;;;;;11.85;2.28;;;;;;;;;;5007931;28;20060;-66
2022/05/08 05:57:39;;;;;;;14.50;2.90;;;;;;;;;;5017486;28;20148;-66
2022/05/08 06:00:09;;;;;;;16.17;3.00;;;;;;;;;;5013512;28;20132;-66
2022/05/08 06:02:35;;;;;;;13.00;2.40;;;;;;;;;;5009400;28;20476;-66
2022/05/08 06:05:01;;;;;;;6.63;1.77;;;;;;;;;;5014889;28;20160;-66
2022/05/08 06:07:27;;;;;;;12.07;2.47;;;;;;;;;;5007102;28;20042;-66
2022/05/08 06:09:54;;;;;;;12.15;2.38;;;;;;;;;;4996099;28;20050;-66
2022/05/08 06:12:20;;;;;;;7.13;2.20;;;;;;;;;;5009572;28;20113;-66
2022/05/08 06:14:46;;;;;;;15.25;3.03;;;;;;;;;;5012107;28;22021;-66
2022/05/08 06:17:13;;;;;;;11.73;2.30;;;;;;;;;;5000592;28;20379;-66
2022/05/08 06:19:39;;;;;;;12.60;2.28;;;;;;;;;;5004663;28;20403;-66
2022/05/08 06:22:06;;;;;;;16.10;2.30;;;;;;;;;;5010946;28;20127;-65
2022/05/08 06:24:33;;;;;;;16.02;4.43;;;;;;;;;;5017096;28;20053;-66
2022/05/08 06:26:59;;;;;;;12.63;1.88;;;;;;;;;;5019153;28;20049;-66
2022/05/08 06:29:25;;;;;;;13.20;3.85;;;;;;;;;;5014275;28;20136;-66
2022/05/08 06:31:52;;;;;;;14.35;2.10;;;;;;;;;;5016494;28;20502;-66
2022/05/08 06:34:18;;;;;;;10.30;2.70;;;;;;;;;;5016985;28;20403;-66
2022/05/08 06:36:44;;;;;;;13.20;2.65;;;;;;;;;;5009922;28;20136;-66
2022/05/08 06:39:11;;;;;;;13.32;1.98;;;;;;;;;;5017636;28;20129;-66
2022/05/08 06:41:37;;;;;;;12.55;2.28;;;;;;;;;;5015391;28;20129;-66
2022/05/08 06:44:03;;;;;;;11.98;2.53;;;;;;;;;;5004597;28;20132;-66
2022/05/08 06:46:32;;;;;;;7.50;1.80;;;;;;;;;;5002014;28;20038;-66
2022/05/08 06:48:59;;;;;;;9.85;2.28;;;;;;;;;;4998878;28;20546;-66
2022/05/08 06:51:26;;;;;;;13.38;2.40;;;;;;;;;;5012463;28;20038;-66
2022/05/08 06:53:52;;;;;;;15.35;2.17;;;;;;;;;;4999024;28;20046;-66
2022/05/08 06:56:18;;;;;;;15.60;2.40;;;;;;;;;;5019172;28;20037;-66
2022/05/08 07:01:36;;;;;;;11.15;2.00;;;;;;;;;;5014941;28;20053;-66
2022/05/08 07:04:03;;;;;;;13.07;3.15;;;;;;;;;;4999762;28;20533;-66
2022/05/08 07:06:30;;;;;;;15.73;3.28;;;;;;;;;;5014268;28;20037;-66
2022/05/08 07:08:56;;;;;;;14.38;1.92;;;;;;;;;;5019207;28;20461;-66
2022/05/08 07:11:23;;;;;;;17.10;2.58;;;;;;;;;;5000416;28;20077;-66
2022/05/08 07:13:49;;;;;;;15.10;2.10;;;;;;;;;;5013036;28;21812;-66
2022/05/08 07:16:15;;;;;;;9.82;2.17;;;;;;;;;;5011998;28;20064;-65
2022/05/08 07:18:41;;;;;;;16.40;2.45;;;;;;;;;;5016175;28;20045;-66
2022/05/08 07:21:07;;;;;;;12.85;2.20;;;;;;;;;;5003035;28;20053;-66
2022/05/08 07:23:34;;;;;;;11.23;1.90;;;;;;;;;;5001218;28;20052;-65
2022/05/08 07:26:00;;;;;;;13.20;2.28;;;;;;;;;;5014784;28;20042;-65
2022/05/08 07:28:28;;;;;;;12.48;1.80;;;;;;;;;;5010399;28;20516;-66
2022/05/08 07:30:55;;;;;;;12.85;2.83;;;;;;;;;;5013979;28;20046;-66
2022/05/08 07:33:21;;;;;;;12.13;2.28;;;;;;;;;;5014294;28;20057;-66
2022/05/08 07:38:32;;;;;;;16.83;2.50;;;;;;;;;;5016822;28;20042;-66
2022/05/08 07:40:59;;;;;;;7.68;1.98;;;;;;;;;;5015258;28;20046;-66
2022/05/08 07:43:25;;;;;;;11.40;1.98;;;;;;;;;;5009155;28;20124;-66
2022/05/08 07:45:52;;;;;;;12.10;2.78;;;;;;;;;;5022627;28;20053;-66
2022/05/08 07:48:18;;;;;;;8.05;2.03;;;;;;;;;;5016743;28;20493;-66
2022/05/08 07:50:45;;;;;;;12.27;2.33;;;;;;;;;;5009623;28;20397;-65
2022/05/08 07:53:12;;;;;;;9.10;1.90;;;;;;;;;;5018040;28;20045;-65
2022/05/08 07:55:39;;;;;;;14.55;2.42;;;;;;;;;;5017865;28;20056;-66
2022/05/08 07:58:05;;;;;;;9.65;2.53;;;;;;;;;;5012908;28;20489;-81
2022/05/08 08:00:31;;;;;;;14.73;2.25;;;;;;;;;;5018884;28;20367;-65
2022/05/08 08:02:57;;;;;;;11.75;1.90;;;;;;;;;;5015456;28;20041;-65
2022/05/08 08:05:24;;;;;;;10.90;2.30;;;;;;;;;;5016292;28;20497;-65
2022/05/08 08:07:50;;;;;;;18.40;2.75;;;;;;;;;;5015496;28;20033;-65
2022/05/08 08:10:17;;;;;;;14.43;2.17;;;;;;;;;;5018313;28;20088;-66
2022/05/08 08:12:43;;;;;;;13.82;2.20;;;;;;;;;;5014090;28;20046;-65
2022/05/08 08:15:10;;;;;;;12.57;2.08;;;;;;;;;;5001692;28;21686;-65
2022/05/08 08:17:36;;;;;;;10.63;2.17;;;;;;;;;;5006880;28;20042;-66
2022/05/08 08:20:03;;;;;;;10.95;2.22;;;;;;;;;;5019944;28;20069;-65
2022/05/08 08:22:29;;;;;;;18.35;3.22;;;;;;;;;;5008292;28;20121;-65
2022/05/08 08:24:57;;;;;;;15.77;2.20;;;;;;;;;;5015429;28;20042;-65
2022/05/08 08:27:23;;;;;;;8.80;2.13;;;;;;;;;;4996926;28;20163;-65
2022/05/08 08:29:49;;;;;;;13.38;2.47;;;;;;;;;;5015078;28;20037;-65
2022/05/08 08:32:15;;;;;;;12.48;2.88;;;;;;;;;;5017851;28;20144;-65
2022/05/08 08:34:41;;;;;;;12.15;2.20;;;;;;;;;;5014204;28;20395;-65
2022/05/08 08:37:08;;;;;;;12.02;2.33;;;;;;;;;;5017279;28;20038;-65
2022/05/08 08:39:34;;;;;;;12.63;2.10;;;;;;;;;;5018239;28;20049;-65
2022/05/08 08:42:08;;;;;;;13.88;2.65;;;;;;;;;;5021612;28;20050;-66
2022/05/08 08:50:06;;;;;;;14.45;1.95;;;;;;;;;;5019182;28;20137;-65
2022/05/08 08:52:32;;;;;;;13.32;2.35;;;;;;;;;;5004464;28;20040;-65
2022/05/08 08:54:59;;;;;;;14.50;2.67;;;;;;;;;;5017785;28;20127;-65
2022/05/08 08:57:25;;;;;;;8.70;2.58;;;;;;;;;;5007927;28;20508;-65
2022/05/08 08:59:52;;;;;;;12.23;2.30;;;;;;;;;;5019679;28;20049;-65
2022/05/08 09:02:20;;;;;;;12.60;2.65;;;;;;;;;;5017829;28;20133;-65
2022/05/08 09:04:47;;;;;;;14.75;3.15;;;;;;;;;;5017511;28;20041;-66
2022/05/08 09:07:32;;;;;;;14.57;2.15;;;;;;;;;;5016798;28;20099;-65
2022/05/08 09:10:09;;;;;;;8.68;1.83;;;;;;;;;;5010751;28;20052;-66
2022/05/08 09:12:36;;;;;;;10.43;2.20;;;;;;;;;;5016094;28;20053;-65
2022/05/08 09:15:21;;;;;;;10.20;3.35;;;;;;;;;;5015222;28;20157;-65
2022/05/08 09:17:48;;;;;;;11.75;2.47;;;;;;;;;;4995839;28;20061;-65
2022/05/08 09:20:26;;;;;;;12.15;2.30;;;;;;;;;;5014633;28;20050;-65
2022/05/08 09:22:59;;;;;;;12.13;2.63;;;;;;;;;;5018719;28;20393;-65
2022/05/08 09:25:27;;;;;;;11.23;3.63;;;;;;;;;;5017929;28;20050;-65
2022/05/08 09:28:00;;;;;;;7.88;1.63;;;;;;;;;;5019318;28;20400;-65
2022/05/08 09:30:26;;;;;;;12.15;2.40;;;;;;;;;;5015863;28;20108;-65
2022/05/08 09:32:52;;;;;;;10.32;2.08;;;;;;;;;;5012673;28;20191;-65
2022/05/08 09:35:18;;;;;;;12.85;2.15;;;;;;;;;;5014805;28;20400;-65
2022/05/08 09:37:52;;;;;;;9.32;2.47;;;;;;;;;;5018856;28;20187;-65
2022/05/08 09:40:19;;;;;;;15.10;2.67;;;;;;;;;;4988000;28;20053;-66
2022/05/08 09:42:47;;;;;;;15.63;2.63;;;;;;;;;;5015223;28;20053;-66
2022/05/08 09:45:13;;;;;;;12.65;3.85;;;;;;;;;;5009871;28;20049;-66
2022/05/08 09:47:42;;;;;;;15.75;2.67;;;;;;;;;;5000137;28;20037;-65
2022/05/08 09:50:09;;;;;;;15.50;2.30;;;;;;;;;;5016070;28;20107;-66
2022/05/08 09:52:38;;;;;;;9.55;3.38;;;;;;;;;;5003598;28;20140;-66
2022/05/08 09:55:05;;;;;;;11.52;2.00;;;;;;;;;;5010223;28;20049;-66
2022/05/08 09:57:33;;;;;;;10.88;2.63;;;;;;;;;;5009139;28;20147;-65
2022/05/08 09:59:59;;;;;;;16.73;3.08;;;;;;;;;;5012455;28;20137;-66
2022/05/08 10:02:25;;;;;;;11.45;1.92;;;;;;;;;;4994953;28;20065;-66
2022/05/08 10:04:52;;;;;;;13.10;2.72;;;;;;;;;;5005357;28;20044;-66
2022/05/08 10:07:19;;;;;;;12.07;2.47;;;;;;;;;;5014483;28;20469;-66
2022/05/08 10:15:20;;;;;;;10.20;2.22;;;;;;;;;;5004896;28;20058;-66
2022/05/08 10:17:46;;;;;;;12.70;2.40;;;;;;;;;;5009414;28;20103;-66
2022/05/08 10:20:12;;;;;;;10.57;2.28;;;;;;;;;;5012795;28;20057;-66
2022/05/08 10:22:48;;;;;;;15.88;2.40;;;;;;;;;;5010236;28;20164;-66
2022/05/08 10:25:15;;;;;;;8.45;2.72;;;;;;;;;;4996068;28;20042;-68
2022/05/08 10:27:43;;;;;;;11.32;2.35;;;;;;;;;;5002161;28;20046;-68
2022/05/08 10:30:09;;;;;;;10.25;2.47;;;;;;;;;;5007971;28;20049;-68
2022/05/08 10:32:35;;;;;;;11.77;2.50;;;;;;;;;;5010572;28;20449;-68
2022/05/08 10:35:09;;;;;;;10.93;2.15;;;;;;;;;;5005425;28;20065;-68
2022/05/08 10:37:35;;;;;;;12.13;2.25;;;;;;;;;;5002638;28;20057;-68
2022/05/08 10:40:01;;;;;;;11.90;2.45;;;;;;;;;;5013868;28;20136;-67
2022/05/08 10:42:33;;;;;;;10.77;2.40;;;;;;;;;;5015444;28;20077;-68
2022/05/08 10:45:00;;;;;;;16.60;2.88;;;;;;;;;;5016746;28;20049;-69
2022/05/08 10:47:34;;;;;;;9.50;2.90;;;;;;;;;;5012431;28;20488;-68
2022/05/08 10:50:02;;;;;;;11.63;2.20;;;;;;;;;;5013970;28;20077;-74
2022/05/08 10:52:30;;;;;;;13.32;2.78;;;;;;;;;;5003708;28;20068;-67
2022/05/08 10:54:56;;;;;;;11.10;2.30;;;;;;;;;;5012824;28;20096;-66
2022/05/08 10:57:30;;;;;;;11.68;2.92;;;;;;;;;;5002129;28;20083;-67
2022/05/08 10:59:57;;;;;;;10.68;2.30;;;;;;;;;;5007832;28;20042;-67
2022/05/08 11:02:39;;;;;;;12.98;2.40;;;;;;;;;;5012574;28;20436;-67
2022/05/08 11:05:06;;;;;;;9.23;2.63;;;;;;;;;;5013965;28;20049;-67
2022/05/08 11:07:32;;;;;;;11.80;2.78;;;;;;;;;;5016545;28;20389;-67
2022/05/08 11:09:59;;;;;;;11.88;2.35;;;;;;;;;;5014882;28;20520;-65
2022/05/08 11:12:26;;;;;;;12.98;2.53;;;;;;;;;;5017216;28;20119;-65
2022/05/08 11:15:08;;;;;;;17.65;3.08;;;;;;;;;;5016662;28;20481;-64
2022/05/08 11:17:34;;;;;;;10.70;2.63;;;;;;;;;;5012669;28;20052;-65
2022/05/08 11:20:01;;;;;;;14.27;3.15;;;;;;;;;;5012988;28;20516;-65
2022/05/08 11:22:27;;;;;;;11.95;2.53;;;;;;;;;;5014241;28;20045;-65
2022/05/08 11:25:10;;;;;;;15.68;2.97;;;;;;;;;;5017499;28;20501;-65
2022/05/08 11:27:36;;;;;;;12.65;2.60;;;;;;;;;;5012864;28;20108;-65
2022/05/08 11:30:05;;;;;;;13.73;3.17;;;;;;;;;;5015311;28;20493;-64
2022/05/08 11:38:17;;;;;;;9.75;2.88;;;;;;;;;;5002659;28;20454;-65
2022/05/08 11:40:45;;;;;;;9.55;2.17;;;;;;;;;;5000885;28;20060;-65
2022/05/08 11:43:31;;;;;;;11.85;3.10;;;;;;;;;;5015528;28;20539;-64
2022/05/08 11:45:59;;;;;;;13.95;2.60;;;;;;;;;;5010565;28;20045;-65
2022/05/08 11:48:31;;;;;;;9.15;2.45;;;;;;;;;;5014586;28;20041;-65
2022/05/08 11:50:57;;;;;;;13.47;2.43;;;;;;;;;;5011470;28;20420;-65
2022/05/08 11:53:23;;;;;;;12.18;2.47;;;;;;;;;;5017956;28;20300;-65
2022/05/08 11:55:49;;;;;;;11.63;2.67;;;;;;;;;;5015543;28;20119;-65
2022/05/08 11:58:31;;;;;;;12.90;2.65;;;;;;;;;;5014437;28;20126;-64
2022/05/08 12:00:58;;;;;;;14.30;2.65;;;;;;;;;;5013282;28;20049;-64
2022/05/08 12:03:28;;;;;;;9.45;2.50;;;;;;;;;;5015464;28;20837;-66
2022/05/08 12:06:11;;;;;;;12.23;2.53;;;;;;;;;;5013308;28;21227;-64
2022/05/08 12:08:37;;;;;;;14.90;3.38;;;;;;;;;;5014109;28;20487;-65
2022/05/08 12:11:03;;;;;;;13.07;3.05;;;;;;;;;;5016501;28;20038;-64
2022/05/08 12:13:34;;;;;;;13.75;3.05;;;;;;;;;;4998502;28;20576;-64
2022/05/08 12:16:16;;;;;;;10.50;2.50;;;;;;;;;;5011590;28;20054;-64
2022/05/08 12:19:01;;;;;;;13.20;2.72;;;;;;;;;;5016466;28;20058;-64
2022/05/08 12:21:28;;;;;;;14.13;3.10;;;;;;;;;;5014362;28;20042;-64
2022/05/08 12:23:57;;;;;;;14.43;3.58;;;;;;;;;;5012849;28;20037;-64
2022/05/08 12:26:23;;;;;;;13.13;2.50;;;;;;;;;;5016453;28;20474;-64
2022/05/08 12:28:50;;;;;;;12.43;2.63;;;;;;;;;;5011858;28;20634;-64
2022/05/08 12:31:16;;;;;;;11.18;2.67;;;;;;;;;;4994438;28;20505;-64
2022/05/08 12:33:44;;;;;;;18.35;3.25;;;;;;;;;;5015229;28;20049;-64
2022/05/08 12:36:10;;;;;;;9.45;2.58;;;;;;;;;;5011521;28;20051;-64
2022/05/08 12:38:36;;;;;;;11.95;3.05;;;;;;;;;;5012900;28;20132;-64
2022/05/08 12:41:03;;;;;;;9.00;2.20;;;;;;;;;;5009721;28;20521;-65
2022/05/08 12:43:30;;;;;;;7.10;1.98;;;;;;;;;;5014446;28;20053;-64
2022/05/08 12:45:56;;;;;;;14.15;2.63;;;;;;;;;;5015665;28;20046;-65
2022/05/08 12:48:22;;;;;;;11.63;2.13;;;;;;;;;;5007797;28;20128;-66
2022/05/08 12:50:50;;;;;;;13.32;2.38;;;;;;;;;;5011730;28;20513;-66
2022/05/08 12:53:17;;;;;;;7.05;2.28;;;;;;;;;;5020388;28;20463;-66
2022/05/08 12:55:43;;;;;;;10.43;2.58;;;;;;;;;;5019245;28;20052;-66
2022/05/08 13:01:10;;;;;;;15.93;3.40;;;;;;;;;;5016111;28;20065;-66
2022/05/08 13:03:36;;;;;;;17.63;2.55;;;;;;;;;;5012696;28;20044;-66
2022/05/08 13:06:03;;;;;;;9.48;2.28;;;;;;;;;;5012265;28;20046;-67
2022/05/08 13:08:29;;;;;;;8.63;2.15;;;;;;;;;;5016720;28;20057;-72
2022/05/08 13:10:56;;;;;;;11.13;3.15;;;;;;;;;;5012466;28;20354;-66
2022/05/08 13:13:22;;;;;;;10.60;3.00;;;;;;;;;;5012697;28;20077;-66
2022/05/08 13:15:48;;;;;;;12.00;2.00;;;;;;;;;;5014897;28;20390;-66
2022/05/08 13:18:14;;;;;;;9.27;2.28;;;;;;;;;;5017701;28;20454;-66
2022/05/08 13:20:40;;;;;;;10.15;2.47;;;;;;;;;;5007348;28;20049;-66
2022/05/08 13:23:07;;;;;;;9.82;2.80;;;;;;;;;;5014022;28;20535;-66
2022/05/08 13:25:33;;;;;;;9.43;2.22;;;;;;;;;;5015374;28;20041;-66
2022/05/08 13:27:59;;;;;;;11.13;2.13;;;;;;;;;;5003397;28;20049;-66
2022/05/08 13:30:26;;;;;;;8.98;2.67;;;;;;;;;;5000792;28;20056;-66
2022/05/08 13:32:52;;;;;;;9.85;2.35;;;;;;;;;;5017490;28;20050;-66
2022/05/08 13:35:18;;;;;;;13.88;2.80;;;;;;;;;;5015011;28;20130;-66
2022/05/08 13:37:44;;;;;;;8.73;1.90;;;;;;;;;;5021177;28;20107;-66
2022/05/08 13:40:10;;;;;;;9.75;2.80;;;;;;;;;;5019772;28;20041;-66
2022/05/08 13:42:37;;;;;;;14.52;2.40;;;;;;;;;;5016031;28;20505;-66
2022/05/08 13:45:03;;;;;;;8.52;2.40;;;;;;;;;;5016316;28;20096;-66
2022/05/08 13:47:30;;;;;;;10.00;1.92;;;;;;;;;;5017736;28;20397;-66
2022/05/08 13:49:57;;;;;;;8.57;2.40;;;;;;;;;;5018173;28;20078;-66
2022/05/08 13:52:24;;;;;;;12.38;2.38;;;;;;;;;;5004441;28;20125;-66
2022/05/08 13:54:50;;;;;;;11.35;2.50;;;;;;;;;;5011742;28;20462;-66
2022/05/08 13:57:17;;;;;;;10.15;2.15;;;;;;;;;;5007906;28;20055;-66
2022/05/08 13:59:43;;;;;;;8.43;2.65;;;;;;;;;;5019704;28;20069;-66
2022/05/08 14:02:11;;;;;;;8.52;1.90;;;;;;;;;;5013873;28;20042;-67
2022/05/08 14:04:38;;;;;;;7.45;2.15;;;;;;;;;;5019198;28;20190;-66
2022/05/08 14:07:04;;;;;;;10.05;2.38;;;;;;;;;;5014652;28;20052;-66
2022/05/08 14:09:30;;;;;;;17.55;2.35;;;;;;;;;;5007047;28;20038;-66
2022/05/08 14:11:56;;;;;;;13.18;2.83;;;;;;;;;;4995805;28;20111;-66
2022/05/08 14:14:25;;;;;;;8.20;2.33;;;;;;;;;;5007590;28;20042;-66
2022/05/08 14:16:51;;;;;;;10.43;2.40;;;;;;;;;;5014976;28;20046;-66
2022/05/08 14:19:18;;;;;;;9.95;2.13;;;;;;;;;;5016063;28;20354;-66
2022/05/08 14:21:44;;;;;;;14.68;2.05;;;;;;;;;;5004437;28;21740;-66
2022/05/08 14:24:10;;;;;;;11.90;2.78;;;;;;;;;;5005002;28;20511;-66
2022/05/08 14:26:36;;;;;;;12.45;2.05;;;;;;;;;;5016019;28;20401;-66
2022/05/08 14:29:02;;;;;;;8.70;2.15;;;;;;;;;;5019474;28;20137;-66
2022/05/08 14:36:58;;;;;;;11.15;2.13;;;;;;;;;;5014276;28;20065;-66
2022/05/08 14:39:24;;;;;;;11.38;2.40;;;;;;;;;;5016749;28;20053;-66
2022/05/08 14:41:50;;;;;;;10.32;2.28;;;;;;;;;;5014550;28;20152;-66
2022/05/08 14:44:17;;;;;;;13.13;2.58;;;;;;;;;;5019629;28;20045;-66
2022/05/08 14:46:43;;;;;;;14.23;2.58;;;;;;;;;;5023425;28;20044;-66
2022/05/08 14:49:10;;;;;;;12.88;2.63;;;;;;;;;;5002826;28;20046;-66
2022/05/08 14:51:36;;;;;;;10.25;2.47;;;;;;;;;;5019225;28;20052;-66
2022/05/08 14:54:02;;;;;;;11.65;2.33;;;;;;;;;;5012992;28;20069;-66
2022/05/08 14:56:29;;;;;;;11.55;2.53;;;;;;;;;;5011157;28;20566;-66
2022/05/08 14:58:55;;;;;;;12.18;2.28;;;;;;;;;;5003750;28;20526;-66
2022/05/08 15:01:22;;;;;;;11.13;2.40;;;;;;;;;;5020351;28;20042;-66
2022/05/08 15:03:48;;;;;;;12.15;2.42;;;;;;;;;;5017960;28;20036;-66
2022/05/08 15:06:14;;;;;;;11.40;2.05;;;;;;;;;;5017197;28;20045;-66
2022/05/08 15:08:42;;;;;;;8.30;1.95;;;;;;;;;;5017598;28;20116;-66
2022/05/08 15:11:08;;;;;;;9.30;2.47;;;;;;;;;;5001252;28;20199;-66